createdAt,value
2022-09-10T00:00:00.816Z,13.49
2022-09-10T00:01:00.983Z,13.48
2022-09-10T00:02:01.185Z,13.46
2022-09-10T00:03:01.293Z,13.43
2022-09-10T00:04:00.400Z,13.4
2022-09-10T00:05:00.612Z,13.37
2022-09-10T00:06:00.729Z,13.35
2022-09-10T00:07:00.835Z,13.33
2022-09-10T00:08:00.990Z,13.3
2022-09-10T00:09:01.140Z,13.27
2022-09-10T00:10:00.279Z,13.25
2022-09-10T00:11:00.436Z,13.24
2022-09-10T00:12:00.607Z,13.23
2022-09-10T00:13:00.723Z,13.21
2022-09-10T00:14:00.874Z,13.19
2022-09-10T00:15:01.018Z,13.17
2022-09-10T00:16:01.207Z,13.16
2022-09-10T00:17:00.329Z,13.15
2022-09-10T00:18:00.471Z,13.14
2022-09-10T00:19:00.611Z,13.14
2022-09-10T00:20:00.748Z,13.11
2022-09-10T00:21:00.903Z,13.1
2022-09-10T00:22:01.037Z,13.09
2022-09-10T00:23:01.216Z,13.08
2022-09-10T00:24:00.322Z,13.08
2022-09-10T00:25:01.690Z,13.06
2022-09-10T00:26:00.629Z,13.05
2022-09-10T00:27:00.781Z,13.05
2022-09-10T00:28:00.938Z,13.06
2022-09-10T00:29:01.077Z,13.09
2022-09-10T00:30:01.218Z,13.08
2022-09-10T00:31:00.418Z,13.08
2022-09-10T00:32:00.505Z,13.09
2022-09-10T00:33:00.655Z,13.1
2022-09-10T00:34:00.854Z,13.11
2022-09-10T00:35:00.975Z,13.11
2022-09-10T00:36:01.128Z,13.1
2022-09-10T00:37:00.287Z,13.1
2022-09-10T00:38:00.433Z,13.1
2022-09-10T00:39:00.599Z,13.09
2022-09-10T00:40:00.793Z,13.09
2022-09-10T00:41:00.872Z,13.1
2022-09-10T00:42:01.032Z,13.11
2022-09-10T00:43:01.169Z,13.1
2022-09-10T00:44:00.317Z,13.09
2022-09-10T00:45:00.481Z,13.09
2022-09-10T00:46:00.658Z,13.08
2022-09-10T00:47:00.761Z,13.09
2022-09-10T00:48:00.925Z,13.08
2022-09-10T00:49:01.066Z,13.1
2022-09-10T00:50:01.246Z,13.11
2022-09-10T00:51:00.359Z,13.12
2022-09-10T00:52:00.522Z,13.14
2022-09-10T00:53:00.659Z,13.15
2022-09-10T00:54:00.813Z,13.16
2022-09-10T00:55:00.993Z,13.17
2022-09-10T00:56:01.117Z,13.18
2022-09-10T00:57:00.265Z,13.19
2022-09-10T00:58:00.424Z,13.18
2022-09-10T00:59:00.567Z,13.18
2022-09-10T01:00:00.738Z,13.17
2022-09-10T01:01:00.960Z,13.16
2022-09-10T01:02:01.077Z,13.14
2022-09-10T01:03:01.159Z,13.12
2022-09-10T01:04:00.301Z,13.1
2022-09-10T01:05:00.467Z,13.06
2022-09-10T01:06:00.607Z,13.05
2022-09-10T01:07:00.752Z,13.03
2022-09-10T01:08:00.924Z,13.01
2022-09-10T01:09:01.041Z,12.99
2022-09-10T01:10:01.184Z,12.96
2022-09-10T01:11:00.328Z,12.95
2022-09-10T01:12:00.468Z,12.93
2022-09-10T01:13:00.624Z,12.92
2022-09-10T01:14:00.768Z,12.9
2022-09-10T01:15:00.912Z,12.87
2022-09-10T01:16:01.103Z,12.84
2022-09-10T01:17:01.224Z,12.79
2022-09-10T01:18:00.353Z,12.76
2022-09-10T01:19:00.495Z,12.74
2022-09-10T01:20:00.645Z,12.71
2022-09-10T01:21:00.790Z,12.7
2022-09-10T01:22:00.950Z,12.69
2022-09-10T01:23:01.113Z,12.67
2022-09-10T01:24:01.225Z,12.65
2022-09-10T01:25:00.375Z,12.64
2022-09-10T01:26:00.525Z,12.63
2022-09-10T01:27:00.680Z,12.6
2022-09-10T01:28:00.816Z,12.6
2022-09-10T01:29:00.960Z,12.6
2022-09-10T01:30:01.109Z,12.6
2022-09-10T01:32:00.378Z,12.59
2022-09-10T01:33:00.513Z,12.57
2022-09-10T01:34:00.678Z,12.56
2022-09-10T01:35:00.810Z,12.55
2022-09-10T01:36:00.955Z,12.52
2022-09-10T01:37:01.111Z,12.5
2022-09-10T01:38:01.256Z,12.47
2022-09-10T01:39:00.415Z,12.44
2022-09-10T01:40:00.604Z,12.42
2022-09-10T01:41:00.687Z,12.38
2022-09-10T01:42:00.828Z,12.38
2022-09-10T01:43:00.982Z,12.37
2022-09-10T01:44:01.106Z,12.37
2022-09-10T01:45:00.262Z,12.38
2022-09-10T01:46:00.433Z,12.38
2022-09-10T01:47:00.553Z,12.4
2022-09-10T01:48:00.696Z,12.42
2022-09-10T01:49:00.857Z,12.43
2022-09-10T01:50:01.023Z,12.44
2022-09-10T01:51:01.142Z,12.45
2022-09-10T01:52:00.279Z,12.45
2022-09-10T01:53:00.435Z,12.46
2022-09-10T01:54:00.580Z,12.47
2022-09-10T01:55:00.739Z,12.49
2022-09-10T01:56:00.878Z,12.5
2022-09-10T01:57:01.033Z,12.52
2022-09-10T01:58:01.184Z,12.53
2022-09-10T01:59:00.332Z,12.53
2022-09-10T02:00:00.490Z,12.55
2022-09-10T02:01:00.637Z,12.56
2022-09-10T02:02:00.802Z,12.56
2022-09-10T02:03:00.913Z,12.56
2022-09-10T02:04:01.054Z,12.56
2022-09-10T02:05:01.232Z,12.56
2022-09-10T02:06:00.348Z,12.56
2022-09-10T02:07:00.504Z,12.56
2022-09-10T02:08:00.647Z,12.56
2022-09-10T02:09:00.805Z,12.57
2022-09-10T02:10:00.961Z,12.57
2022-09-10T02:11:01.096Z,12.56
2022-09-10T02:12:01.227Z,12.56
2022-09-10T02:13:00.383Z,12.55
2022-09-10T02:14:00.531Z,12.55
2022-09-10T02:15:00.690Z,12.56
2022-09-10T02:16:00.883Z,12.59
2022-09-10T02:17:00.967Z,12.6
2022-09-10T02:18:01.119Z,12.6
2022-09-10T02:19:00.257Z,12.64
2022-09-10T02:20:00.416Z,12.64
2022-09-10T02:21:00.554Z,12.64
2022-09-10T02:22:00.713Z,12.62
2022-09-10T02:23:00.858Z,12.6
2022-09-10T02:24:00.997Z,12.6
2022-09-10T02:25:01.163Z,12.6
2022-09-10T02:26:00.290Z,12.6
2022-09-10T02:27:00.428Z,12.6
2022-09-10T02:28:00.574Z,12.6
2022-09-10T02:29:00.721Z,12.63
2022-09-10T02:30:00.874Z,12.65
2022-09-10T02:31:01.013Z,12.7
2022-09-10T02:32:01.151Z,12.74
2022-09-10T02:33:00.302Z,12.76
2022-09-10T02:34:00.444Z,12.77
2022-09-10T02:35:00.616Z,12.77
2022-09-10T02:36:00.743Z,12.77
2022-09-10T02:37:00.895Z,12.77
2022-09-10T02:38:01.040Z,12.77
2022-09-10T02:39:01.187Z,12.78
2022-09-10T02:40:00.499Z,12.8
2022-09-10T02:41:00.479Z,12.8
2022-09-10T02:42:00.620Z,12.81
2022-09-10T02:43:00.773Z,12.81
2022-09-10T02:44:00.928Z,12.81
2022-09-10T02:45:01.101Z,12.81
2022-09-10T02:46:01.330Z,12.82
2022-09-10T02:47:00.369Z,12.82
2022-09-10T02:48:00.509Z,12.84
2022-09-10T02:49:00.672Z,12.85
2022-09-10T02:50:00.826Z,12.86
2022-09-10T02:51:00.978Z,12.87
2022-09-10T02:52:01.107Z,12.88
2022-09-10T02:53:01.252Z,12.88
2022-09-10T02:54:00.413Z,12.87
2022-09-10T02:55:00.545Z,12.87
2022-09-10T02:56:00.695Z,12.87
2022-09-10T02:57:00.845Z,12.87
2022-09-10T02:58:00.987Z,12.88
2022-09-10T02:59:01.164Z,12.89
2022-09-10T03:00:00.293Z,12.89
2022-09-10T03:01:00.499Z,12.9
2022-09-10T03:02:00.638Z,12.91
2022-09-10T03:03:03.078Z,12.91
2022-09-10T03:04:00.908Z,12.91
2022-09-10T03:05:01.139Z,12.91
2022-09-10T03:06:01.186Z,12.9
2022-09-10T03:07:00.327Z,12.9
2022-09-10T03:08:00.465Z,12.9
2022-09-10T03:09:00.653Z,12.9
2022-09-10T03:10:00.773Z,12.89
2022-09-10T03:11:00.917Z,12.89
2022-09-10T03:12:01.056Z,12.9
2022-09-10T03:13:01.201Z,12.9
2022-09-10T03:14:00.364Z,12.9
2022-09-10T03:15:00.522Z,12.91
2022-09-10T03:16:00.759Z,12.92
2022-09-10T03:17:00.794Z,12.95
2022-09-10T03:18:00.942Z,12.96
2022-09-10T03:19:01.098Z,12.99
2022-09-10T03:20:01.251Z,13
2022-09-10T03:21:00.389Z,13
2022-09-10T03:22:00.540Z,13
2022-09-10T03:23:00.692Z,13.01
2022-09-10T03:24:00.862Z,13.01
2022-09-10T03:25:00.993Z,13.02
2022-09-10T03:26:01.141Z,13.02
2022-09-10T03:27:00.276Z,13.01
2022-09-10T03:28:00.439Z,13.02
2022-09-10T03:29:00.601Z,13.02
2022-09-10T03:30:00.733Z,13.02
2022-09-10T03:31:00.881Z,13.03
2022-09-10T03:32:01.030Z,13.03
2022-09-10T03:33:01.182Z,13.03
2022-09-10T03:34:00.354Z,13.03
2022-09-10T03:35:00.494Z,13.01
2022-09-10T03:36:00.631Z,12.99
2022-09-10T03:37:00.781Z,12.96
2022-09-10T03:38:00.924Z,12.94
2022-09-10T03:39:01.098Z,12.91
2022-09-10T03:40:01.322Z,12.88
2022-09-10T03:41:00.356Z,12.86
2022-09-10T03:42:00.530Z,12.85
2022-09-10T03:43:00.660Z,12.84
2022-09-10T03:44:00.814Z,12.84
2022-09-10T03:45:00.958Z,12.8
2022-09-10T03:46:01.155Z,12.79
2022-09-10T03:47:01.275Z,12.77
2022-09-10T03:48:00.391Z,12.75
2022-09-10T03:49:00.544Z,12.74
2022-09-10T03:50:00.696Z,12.73
2022-09-10T03:51:00.851Z,12.72
2022-09-10T03:52:01.014Z,12.71
2022-09-10T03:53:01.162Z,12.71
2022-09-10T03:54:00.285Z,12.72
2022-09-10T03:55:00.420Z,12.73
2022-09-10T03:56:00.571Z,12.75
2022-09-10T03:57:00.715Z,12.78
2022-09-10T03:58:00.899Z,12.84
2022-09-10T03:59:01.008Z,12.87
2022-09-10T04:00:01.159Z,12.89
2022-09-10T04:01:00.341Z,12.91
2022-09-10T04:02:00.497Z,12.94
2022-09-10T04:03:00.616Z,12.97
2022-09-10T04:04:00.778Z,13
2022-09-10T04:05:00.890Z,13.02
2022-09-10T04:06:01.037Z,13.03
2022-09-10T04:07:01.193Z,13.05
2022-09-10T04:08:00.330Z,13.08
2022-09-10T04:09:00.502Z,13.09
2022-09-10T04:10:00.621Z,13.1
2022-09-10T04:11:00.779Z,13.12
2022-09-10T04:12:00.929Z,13.14
2022-09-10T04:13:01.068Z,13.15
2022-09-10T04:14:01.250Z,13.16
2022-09-10T04:15:00.375Z,13.18
2022-09-10T04:16:00.525Z,13.19
2022-09-10T04:17:01.651Z,13.21
2022-09-10T04:18:00.819Z,13.21
2022-09-10T04:19:00.987Z,13.23
2022-09-10T04:20:01.133Z,13.24
2022-09-10T04:22:00.365Z,13.26
2022-09-10T04:23:00.513Z,13.29
2022-09-10T04:24:00.724Z,13.3
2022-09-10T04:25:00.829Z,13.3
2022-09-10T04:26:00.961Z,13.31
2022-09-10T04:27:01.108Z,13.34
2022-09-10T04:28:01.243Z,13.34
2022-09-10T04:29:00.397Z,13.36
2022-09-10T04:30:00.564Z,13.37
2022-09-10T04:31:00.683Z,13.38
2022-09-10T04:32:00.899Z,13.39
2022-09-10T04:33:00.984Z,13.39
2022-09-10T04:34:01.137Z,13.4
2022-09-10T04:35:00.301Z,13.41
2022-09-10T04:36:00.410Z,13.39
2022-09-10T04:37:00.569Z,13.4
2022-09-10T04:38:00.738Z,13.4
2022-09-10T04:39:00.892Z,13.4
2022-09-10T04:40:01.214Z,13.41
2022-09-10T04:41:01.194Z,13.41
2022-09-10T04:42:00.329Z,13.41
2022-09-10T04:43:00.482Z,13.41
2022-09-10T04:44:00.626Z,13.43
2022-09-10T04:45:00.793Z,13.45
2022-09-10T04:46:00.982Z,13.47
2022-09-10T04:47:01.070Z,13.48
2022-09-10T04:48:06.196Z,13.49
2022-09-10T04:49:00.367Z,13.49
2022-09-10T04:50:00.531Z,13.49
2022-09-10T04:51:15.733Z,13.49
2022-09-10T04:52:00.835Z,13.49
2022-09-10T04:53:00.962Z,13.49
2022-09-10T04:54:01.107Z,13.5
2022-09-10T04:55:01.257Z,13.5
2022-09-10T04:56:00.397Z,13.51
2022-09-10T04:57:00.573Z,13.51
2022-09-10T04:58:00.692Z,13.5
2022-09-10T04:59:00.826Z,13.5
2022-09-10T05:00:00.973Z,13.52
2022-09-10T05:01:01.147Z,13.51
2022-09-10T05:02:00.300Z,13.51
2022-09-10T05:03:00.413Z,13.51
2022-09-10T05:04:00.572Z,13.51
2022-09-10T05:05:00.708Z,13.51
2022-09-10T05:06:00.870Z,13.51
2022-09-10T05:07:01.007Z,13.52
2022-09-10T05:08:01.168Z,13.53
2022-09-10T05:09:00.319Z,13.54
2022-09-10T05:10:00.445Z,13.56
2022-09-10T05:11:00.606Z,13.59
2022-09-10T05:12:00.742Z,13.6
2022-09-10T05:13:00.890Z,13.61
2022-09-10T05:14:01.069Z,13.64
2022-09-10T05:15:01.180Z,13.65
2022-09-10T05:16:00.331Z,13.66
2022-09-10T05:17:00.465Z,13.67
2022-09-10T05:18:00.602Z,13.7
2022-09-10T05:19:00.777Z,13.71
2022-09-10T05:20:00.895Z,13.74
2022-09-10T05:21:01.036Z,13.77
2022-09-10T05:22:01.182Z,13.79
2022-09-10T05:23:00.328Z,13.82
2022-09-10T05:24:00.495Z,13.83
2022-09-10T05:25:00.616Z,13.85
2022-09-10T05:26:00.757Z,13.88
2022-09-10T05:27:00.891Z,13.9
2022-09-10T05:28:01.057Z,13.91
2022-09-10T05:29:01.210Z,13.91
2022-09-10T05:30:00.332Z,13.91
2022-09-10T05:31:00.513Z,13.93
2022-09-10T05:32:00.647Z,13.96
2022-09-10T05:33:00.806Z,13.96
2022-09-10T05:34:00.968Z,13.97
2022-09-10T05:35:01.103Z,13.97
2022-09-10T05:36:01.248Z,13.98
2022-09-10T05:37:00.397Z,13.99
2022-09-10T05:38:00.555Z,13.99
2022-09-10T05:39:00.713Z,14
2022-09-10T05:40:00.927Z,14.01
2022-09-10T05:41:00.991Z,14.03
2022-09-10T05:42:01.140Z,14.03
2022-09-10T05:43:00.286Z,14.05
2022-09-10T05:44:00.437Z,14.05
2022-09-10T05:45:00.611Z,14.06
2022-09-10T05:46:00.891Z,14.06
2022-09-10T05:47:00.885Z,14.08
2022-09-10T05:48:01.038Z,14.1
2022-09-10T05:49:01.177Z,14.09
2022-09-10T05:50:00.347Z,14.1
2022-09-10T05:51:00.474Z,14.11
2022-09-10T05:52:00.614Z,14.12
2022-09-10T05:53:00.767Z,14.12
2022-09-10T05:54:00.906Z,14.13
2022-09-10T05:55:01.060Z,14.13
2022-09-10T05:56:01.211Z,14.15
2022-09-10T05:57:00.341Z,14.18
2022-09-10T05:58:00.484Z,14.19
2022-09-10T05:59:00.633Z,14.19
2022-09-10T06:00:00.779Z,14.2
2022-09-10T06:01:00.950Z,14.22
2022-09-10T06:02:01.189Z,14.23
2022-09-10T06:03:01.428Z,14.23
2022-09-10T06:04:00.380Z,14.24
2022-09-10T06:05:00.518Z,14.25
2022-09-10T06:06:00.682Z,14.25
2022-09-10T06:07:00.812Z,14.25
2022-09-10T06:08:03.365Z,14.26
2022-09-10T06:09:01.108Z,14.27
2022-09-10T06:10:01.269Z,14.28
2022-09-10T06:11:00.409Z,14.29
2022-09-10T06:13:00.772Z,14.32
2022-09-10T06:14:00.862Z,14.32
2022-09-10T06:15:01.014Z,14.32
2022-09-10T06:16:01.142Z,14.33
2022-09-10T06:17:00.285Z,14.33
2022-09-10T06:18:00.438Z,14.32
2022-09-10T06:19:00.604Z,14.33
2022-09-10T06:20:00.768Z,14.34
2022-09-10T06:21:00.887Z,14.34
2022-09-10T06:22:01.045Z,14.35
2022-09-10T06:23:01.183Z,14.35
2022-09-10T06:24:00.330Z,14.37
2022-09-10T06:25:00.498Z,14.4
2022-09-10T06:26:00.620Z,14.43
2022-09-10T06:27:00.772Z,14.43
2022-09-10T06:28:00.918Z,14.44
2022-09-10T06:29:01.079Z,14.48
2022-09-10T06:30:01.243Z,14.51
2022-09-10T06:31:00.432Z,14.54
2022-09-10T06:32:00.505Z,14.58
2022-09-10T06:33:00.660Z,14.6
2022-09-10T06:34:00.800Z,14.66
2022-09-10T06:35:00.972Z,14.68
2022-09-10T06:36:01.099Z,14.71
2022-09-10T06:37:01.249Z,14.75
2022-09-10T06:38:00.391Z,14.79
2022-09-10T06:39:00.544Z,14.83
2022-09-10T06:40:00.761Z,14.88
2022-09-10T06:41:00.843Z,14.93
2022-09-10T06:42:00.988Z,14.97
2022-09-10T06:43:01.137Z,15.02
2022-09-10T06:44:00.305Z,15.08
2022-09-10T06:45:00.456Z,15.1
2022-09-10T06:46:00.689Z,15.12
2022-09-10T06:47:39.325Z,15.14
2022-09-10T06:49:01.118Z,15.12
2022-09-10T06:50:01.200Z,15.12
2022-09-10T06:51:00.351Z,15.11
2022-09-10T06:52:00.493Z,15.11
2022-09-10T06:53:00.648Z,15.1
2022-09-10T06:54:00.789Z,15.1
2022-09-10T06:55:00.945Z,15.1
2022-09-10T06:56:01.085Z,15.1
2022-09-10T06:57:01.271Z,15.09
2022-09-10T06:58:00.377Z,15.1
2022-09-10T06:59:02.632Z,15.13
2022-09-10T07:00:00.667Z,15.14
2022-09-10T07:01:00.837Z,15.18
2022-09-10T07:02:01.022Z,15.22
2022-09-10T07:03:01.129Z,15.25
2022-09-10T07:04:01.253Z,15.28
2022-09-10T07:05:00.400Z,15.31
2022-09-10T07:06:00.561Z,15.33
2022-09-10T07:07:00.723Z,15.37
2022-09-10T07:08:00.894Z,15.42
2022-09-10T07:09:01.017Z,15.45
2022-09-10T07:10:01.157Z,15.49
2022-09-10T07:11:00.312Z,15.53
2022-09-10T07:12:00.462Z,15.57
2022-09-10T07:13:00.626Z,15.61
2022-09-10T07:14:00.777Z,15.61
2022-09-10T07:15:00.907Z,15.61
2022-09-10T07:16:01.187Z,15.6
2022-09-10T07:17:01.204Z,15.58
2022-09-10T07:18:00.352Z,15.57
2022-09-10T07:19:00.523Z,15.56
2022-09-10T07:20:00.650Z,15.53
2022-09-10T07:21:00.808Z,15.51
2022-09-10T07:22:00.961Z,15.52
2022-09-10T07:23:01.103Z,15.54
2022-09-10T07:24:01.376Z,15.57
2022-09-10T07:25:00.398Z,15.59
2022-09-10T07:26:00.540Z,15.63
2022-09-10T07:27:00.693Z,15.65
2022-09-10T07:28:00.855Z,15.71
2022-09-10T07:29:01.002Z,15.72
2022-09-10T07:30:01.141Z,15.75
2022-09-10T07:31:00.327Z,15.77
2022-09-10T07:32:00.440Z,15.81
2022-09-10T07:33:00.598Z,15.82
2022-09-10T07:34:00.745Z,15.88
2022-09-10T07:35:00.907Z,15.92
2022-09-10T07:36:01.043Z,15.96
2022-09-10T07:37:01.189Z,15.99
2022-09-10T07:38:00.348Z,16.01
2022-09-10T07:39:00.492Z,16.07
2022-09-10T07:40:00.670Z,16.14
2022-09-10T07:41:00.797Z,16.21
2022-09-10T07:42:00.929Z,16.3
2022-09-10T07:43:01.084Z,16.39
2022-09-10T07:44:01.228Z,16.43
2022-09-10T07:45:00.403Z,16.44
2022-09-10T07:46:04.128Z,16.49
2022-09-10T07:47:00.676Z,16.52
2022-09-10T07:48:00.828Z,16.57
2022-09-10T07:49:00.993Z,16.61
2022-09-10T07:50:01.137Z,16.65
2022-09-10T07:51:00.263Z,16.71
2022-09-10T07:52:00.465Z,16.73
2022-09-10T07:53:00.592Z,16.73
2022-09-10T07:54:00.723Z,16.7
2022-09-10T07:55:00.854Z,16.69
2022-09-10T07:56:01.047Z,16.66
2022-09-10T07:57:01.160Z,16.63
2022-09-10T07:58:00.422Z,16.59
2022-09-10T07:59:00.471Z,16.56
2022-09-10T08:00:00.616Z,16.52
2022-09-10T08:01:00.997Z,16.5
2022-09-10T08:02:00.976Z,16.49
2022-09-10T08:03:01.076Z,16.49
2022-09-10T08:04:01.206Z,16.49
2022-09-10T08:05:00.363Z,16.48
2022-09-10T08:06:00.517Z,16.49
2022-09-10T08:07:00.687Z,16.49
2022-09-10T08:08:00.805Z,16.51
2022-09-10T08:09:00.958Z,16.55
2022-09-10T08:10:01.102Z,16.55
2022-09-10T08:11:01.243Z,16.56
2022-09-10T08:12:00.393Z,16.58
2022-09-10T08:13:00.548Z,16.6
2022-09-10T08:14:00.685Z,16.58
2022-09-10T08:15:00.839Z,16.56
2022-09-10T08:16:00.998Z,16.54
2022-09-10T08:17:01.124Z,16.51
2022-09-10T08:18:00.275Z,16.49
2022-09-10T08:19:00.421Z,16.47
2022-09-10T08:20:00.606Z,16.44
2022-09-10T08:21:00.735Z,16.44
2022-09-10T08:22:00.864Z,16.43
2022-09-10T08:23:01.011Z,16.43
2022-09-10T08:24:01.157Z,16.42
2022-09-10T08:25:00.335Z,16.42
2022-09-10T08:26:00.459Z,16.43
2022-09-10T08:27:00.589Z,16.44
2022-09-10T08:28:00.749Z,16.46
2022-09-10T08:29:00.896Z,16.48
2022-09-10T08:30:01.059Z,16.49
2022-09-10T08:31:01.229Z,16.5
2022-09-10T08:32:00.315Z,16.5
2022-09-10T08:33:00.471Z,16.5
2022-09-10T08:34:00.615Z,16.5
2022-09-10T08:35:00.769Z,16.49
2022-09-10T08:36:00.893Z,16.49
2022-09-10T08:37:01.048Z,16.49
2022-09-10T08:38:01.189Z,16.51
2022-09-10T08:39:04.020Z,16.5
2022-09-10T08:40:00.523Z,16.51
2022-09-10T08:41:00.621Z,16.55
2022-09-10T08:42:00.768Z,16.59
2022-09-10T08:43:00.913Z,16.61
2022-09-10T08:44:01.066Z,16.64
2022-09-10T08:45:01.222Z,16.67
2022-09-10T08:46:00.390Z,16.71
2022-09-10T08:47:00.497Z,16.74
2022-09-10T08:48:00.645Z,16.75
2022-09-10T08:49:00.797Z,16.75
2022-09-10T08:50:00.964Z,16.78
2022-09-10T08:51:01.094Z,16.78
2022-09-10T08:52:01.234Z,16.77
2022-09-10T08:53:00.383Z,16.76
2022-09-10T08:54:00.542Z,16.74
2022-09-10T08:55:00.709Z,16.71
2022-09-10T08:56:00.850Z,16.69
2022-09-10T08:57:00.985Z,16.65
2022-09-10T08:58:01.131Z,16.62
2022-09-10T08:59:00.283Z,16.6
2022-09-10T09:00:00.462Z,16.58
2022-09-10T09:01:00.576Z,16.58
2022-09-10T09:02:00.826Z,16.57
2022-09-10T09:03:00.914Z,16.55
2022-09-10T09:04:05.965Z,16.52
2022-09-10T09:05:01.201Z,16.5
2022-09-10T09:06:00.332Z,16.49
2022-09-10T09:07:00.459Z,16.47
2022-09-10T09:08:00.614Z,16.46
2022-09-10T09:09:00.759Z,16.44
2022-09-10T09:10:00.922Z,16.44
2022-09-10T09:11:01.081Z,16.44
2022-09-10T09:12:01.169Z,16.44
2022-09-10T09:13:00.323Z,16.43
2022-09-10T09:14:00.471Z,16.44
2022-09-10T09:15:00.616Z,16.45
2022-09-10T09:16:00.806Z,16.45
2022-09-10T09:17:00.916Z,16.46
2022-09-10T09:18:01.046Z,16.46
2022-09-10T09:19:01.198Z,16.47
2022-09-10T09:20:00.345Z,16.46
2022-09-10T09:21:00.504Z,16.49
2022-09-10T09:22:00.639Z,16.52
2022-09-10T09:23:00.793Z,16.57
2022-09-10T09:24:13.219Z,16.62
2022-09-10T09:25:01.115Z,16.64
2022-09-10T09:26:01.237Z,16.74
2022-09-10T09:27:00.399Z,16.81
2022-09-10T09:28:00.541Z,16.86
2022-09-10T09:29:00.685Z,16.89
2022-09-10T09:30:00.835Z,16.95
2022-09-10T09:31:01.154Z,17.02
2022-09-10T09:32:01.155Z,17.04
2022-09-10T09:33:00.287Z,17.08
2022-09-10T09:34:00.423Z,17.1
2022-09-10T09:35:00.572Z,17.14
2022-09-10T09:36:00.717Z,17.18
2022-09-10T09:37:00.880Z,17.24
2022-09-10T09:38:01.036Z,17.24
2022-09-10T09:39:01.159Z,17.24
2022-09-10T09:40:00.369Z,17.24
2022-09-10T09:41:00.453Z,17.26
2022-09-10T09:42:00.600Z,17.3
2022-09-10T09:43:00.753Z,17.32
2022-09-10T09:44:00.896Z,17.36
2022-09-10T09:45:01.043Z,17.37
2022-09-10T09:46:01.258Z,17.39
2022-09-10T09:47:00.343Z,17.48
2022-09-10T09:48:00.492Z,17.51
2022-09-10T09:49:00.639Z,17.54
2022-09-10T09:50:00.784Z,17.58
2022-09-10T09:51:00.953Z,17.6
2022-09-10T09:52:01.083Z,17.62
2022-09-10T09:53:01.227Z,17.61
2022-09-10T09:54:34.421Z,17.6
2022-09-10T09:55:14.234Z,17.61
2022-09-10T09:56:00.687Z,17.65
2022-09-10T09:57:00.836Z,17.63
2022-09-10T09:58:00.964Z,17.63
2022-09-10T09:59:01.129Z,17.64
2022-09-10T10:00:01.258Z,17.69
2022-09-10T10:01:00.406Z,17.73
2022-09-10T10:02:00.633Z,17.78
2022-09-10T10:03:00.687Z,17.85
2022-09-10T10:04:00.837Z,17.94
2022-09-10T10:05:00.996Z,18
2022-09-10T10:06:01.127Z,18.03
2022-09-10T10:07:00.267Z,18.04
2022-09-10T10:08:00.415Z,18.06
2022-09-10T10:09:00.570Z,18.05
2022-09-10T10:10:00.725Z,18.04
2022-09-10T10:11:00.858Z,18.04
2022-09-10T10:12:01.009Z,18.04
2022-09-10T10:13:01.143Z,18.03
2022-09-10T10:14:00.294Z,18.04
2022-09-10T10:15:00.452Z,18.04
2022-09-10T10:16:00.600Z,18.08
2022-09-10T10:17:01.128Z,18.08
2022-09-10T10:18:00.881Z,18.11
2022-09-10T10:19:01.038Z,18.14
2022-09-10T10:20:01.204Z,18.18
2022-09-10T10:21:00.325Z,18.2
2022-09-10T10:22:00.479Z,18.21
2022-09-10T10:23:00.633Z,18.22
2022-09-10T10:24:00.778Z,18.22
2022-09-10T10:25:00.959Z,18.2
2022-09-10T10:26:01.079Z,18.2
2022-09-10T10:27:01.227Z,18.15
2022-09-10T10:28:00.380Z,18.11
2022-09-10T10:29:00.519Z,18.06
2022-09-10T10:30:00.690Z,18.04
2022-09-10T10:31:00.878Z,18.03
2022-09-10T10:32:05.479Z,18.03
2022-09-10T10:33:01.125Z,18.03
2022-09-10T10:34:00.264Z,18.04
2022-09-10T10:35:00.406Z,18.02
2022-09-10T10:36:00.586Z,18.02
2022-09-10T10:37:00.707Z,18
2022-09-10T10:38:00.854Z,17.99
2022-09-10T10:39:00.995Z,17.97
2022-09-10T10:40:01.372Z,17.95
2022-09-10T10:41:00.329Z,17.94
2022-09-10T10:42:00.445Z,17.94
2022-09-10T10:43:00.580Z,17.94
2022-09-10T10:44:00.740Z,17.94
2022-09-10T10:45:00.898Z,17.92
2022-09-10T10:46:01.144Z,17.9
2022-09-10T10:47:01.184Z,17.89
2022-09-10T10:48:00.338Z,17.89
2022-09-10T10:49:03.572Z,17.88
2022-09-10T10:50:00.630Z,17.87
2022-09-10T10:51:00.811Z,17.89
2022-09-10T10:52:00.926Z,17.92
2022-09-10T10:53:01.075Z,17.93
2022-09-10T10:54:01.274Z,17.98
2022-09-10T10:55:00.393Z,18.04
2022-09-10T10:56:00.594Z,18.11
2022-09-10T10:57:00.672Z,18.2
2022-09-10T10:58:00.814Z,18.27
2022-09-10T10:59:00.979Z,18.35
2022-09-10T11:00:01.113Z,18.42
2022-09-10T11:02:00.542Z,18.49
2022-09-10T11:03:00.508Z,18.5
2022-09-10T11:04:00.665Z,18.53
2022-09-10T11:05:00.810Z,18.53
2022-09-10T11:06:00.962Z,18.54
2022-09-10T11:07:01.128Z,18.53
2022-09-10T11:08:01.239Z,18.51
2022-09-10T11:09:00.388Z,18.53
2022-09-10T11:10:00.543Z,18.53
2022-09-10T11:11:00.695Z,18.56
2022-09-10T11:12:00.873Z,18.56
2022-09-10T11:13:01.040Z,18.56
2022-09-10T11:14:01.145Z,18.57
2022-09-10T11:15:00.295Z,18.59
2022-09-10T11:16:00.475Z,18.61
2022-09-10T11:17:00.601Z,18.64
2022-09-10T11:18:00.773Z,18.67
2022-09-10T11:19:00.895Z,18.7
2022-09-10T11:20:24.644Z,18.74
2022-09-10T11:21:01.199Z,18.77
2022-09-10T11:22:00.343Z,18.79
2022-09-10T11:23:00.489Z,18.8
2022-09-10T11:24:00.626Z,18.79
2022-09-10T11:25:00.809Z,18.8
2022-09-10T11:26:00.910Z,18.77
2022-09-10T11:27:01.073Z,18.7
2022-09-10T11:28:01.210Z,18.67
2022-09-10T11:29:00.354Z,18.62
2022-09-10T11:30:00.516Z,18.57
2022-09-10T11:31:00.684Z,18.53
2022-09-10T11:32:00.807Z,18.52
2022-09-10T11:33:00.951Z,18.52
2022-09-10T11:34:01.094Z,18.54
2022-09-10T11:35:01.265Z,18.56
2022-09-10T11:36:00.378Z,18.59
2022-09-10T11:37:00.531Z,18.61
2022-09-10T11:38:00.680Z,18.65
2022-09-10T11:39:00.834Z,18.66
2022-09-10T11:40:01.019Z,18.69
2022-09-10T11:41:01.151Z,18.74
2022-09-10T11:42:00.279Z,18.79
2022-09-10T11:43:00.429Z,18.82
2022-09-10T11:44:00.574Z,18.87
2022-09-10T11:45:00.724Z,18.89
2022-09-10T11:46:00.957Z,18.93
2022-09-10T11:47:01.027Z,18.95
2022-09-10T11:48:01.180Z,18.98
2022-09-10T11:49:00.323Z,19
2022-09-10T11:50:00.465Z,19.02
2022-09-10T11:51:00.635Z,19.03
2022-09-10T11:52:00.786Z,19.04
2022-09-10T11:53:00.923Z,19.06
2022-09-10T11:54:01.060Z,19.07
2022-09-10T11:55:01.208Z,19.08
2022-09-10T11:56:00.357Z,19.08
2022-09-10T11:57:00.499Z,19.07
2022-09-10T11:58:00.640Z,19.06
2022-09-10T11:59:00.783Z,19.08
2022-09-10T12:00:00.931Z,19.11
2022-09-10T12:01:01.085Z,19.15
2022-09-10T12:02:01.279Z,19.2
2022-09-10T12:03:00.384Z,19.24
2022-09-10T12:04:00.576Z,19.3
2022-09-10T12:05:00.686Z,19.36
2022-09-10T12:06:00.818Z,19.41
2022-09-10T12:07:00.999Z,19.43
2022-09-10T12:08:01.160Z,19.46
2022-09-10T12:09:00.311Z,19.53
2022-09-10T12:10:00.442Z,19.58
2022-09-10T12:11:00.600Z,19.6
2022-09-10T12:12:00.732Z,19.59
2022-09-10T12:13:00.885Z,19.58
2022-09-10T12:14:01.014Z,19.55
2022-09-10T12:15:01.164Z,19.48
2022-09-10T12:16:00.350Z,19.41
2022-09-10T12:17:00.446Z,19.36
2022-09-10T12:18:00.613Z,19.3
2022-09-10T12:19:00.761Z,19.24
2022-09-10T12:20:00.892Z,19.16
2022-09-10T12:21:01.047Z,19.11
2022-09-10T12:22:01.187Z,19.04
2022-09-10T12:23:00.345Z,18.99
2022-09-10T12:24:00.516Z,18.95
2022-09-10T12:25:00.625Z,18.95
2022-09-10T12:26:00.783Z,18.96
2022-09-10T12:27:00.931Z,18.97
2022-09-10T12:28:01.082Z,18.98
2022-09-10T12:29:01.260Z,19
2022-09-10T12:30:00.379Z,19.02
2022-09-10T12:31:00.612Z,19.03
2022-09-10T12:32:00.672Z,19.03
2022-09-10T12:33:00.822Z,19.04
2022-09-10T12:34:01.003Z,19.04
2022-09-10T12:35:01.128Z,19.03
2022-09-10T12:36:00.278Z,19.01
2022-09-10T12:37:00.419Z,19
2022-09-10T12:38:00.566Z,18.99
2022-09-10T12:39:00.736Z,19
2022-09-10T12:40:00.891Z,19.01
2022-09-10T12:41:01.011Z,18.98
2022-09-10T12:42:01.158Z,18.99
2022-09-10T12:43:00.293Z,19
2022-09-10T12:44:00.482Z,19
2022-09-10T12:45:00.606Z,18.99
2022-09-10T12:46:00.878Z,18.96
2022-09-10T12:47:00.906Z,18.92
2022-09-10T12:48:01.038Z,18.86
2022-09-10T12:49:01.203Z,18.79
2022-09-10T12:50:00.341Z,18.69
2022-09-10T12:51:00.478Z,18.53
2022-09-10T12:52:00.645Z,18.35
2022-09-10T12:53:00.778Z,18.17
2022-09-10T12:54:01.071Z,18
2022-09-10T12:55:01.078Z,17.87
2022-09-10T12:56:01.228Z,17.73
2022-09-10T12:57:00.363Z,17.6
2022-09-10T12:58:00.516Z,17.5
2022-09-10T12:59:00.688Z,17.39
2022-09-10T13:00:00.907Z,17.32
2022-09-10T13:01:00.975Z,17.23
2022-09-10T13:02:01.299Z,17.17